Time;durP1;ratioP1;P1;durP2;ratioP2;P2;SDS_P1;SDS_P2;PMS_P1;PMS_P2;Temp;Humidity;BMP_temperature;BMP_pressure;BME280_temperature;BME280_humidity;BME280_pressure;Samples;Min_cycle;Max_cycle;Signal;HPM_P1;HPM_P2
2022/07/08 00:00:01;;;;;;;7.70;4.50;;;;;;;17.81;79.37;94610.00;4993803;28;20263;-79
2022/07/08 00:02:28;;;;;;;7.88;3.30;;;;;;;17.77;79.69;94601.72;4993415;28;20229;-80
2022/07/08 00:04:55;;;;;;;4.72;3.10;;;;;;;17.69;79.41;94594.59;4993730;28;20256;-80
2022/07/08 00:07:22;;;;;;;11.30;3.65;;;;;;;17.86;78.88;94593.22;4994018;28;20206;-79
2022/07/08 00:09:49;;;;;;;5.70;3.67;;;;;;;17.90;78.55;94587.78;4993629;28;20308;-77
2022/07/08 00:12:17;;;;;;;3.85;2.83;;;;;;;17.88;78.41;94579.94;4993788;28;20636;-77
2022/07/08 00:14:44;;;;;;;7.03;3.65;;;;;;;17.77;79.11;94583.72;4993478;28;20272;-78
2022/07/08 00:17:11;;;;;;;4.15;2.83;;;;;;;17.74;78.98;94580.56;4993750;28;20256;-79
2022/07/08 00:19:38;;;;;;;5.30;2.85;;;;;;;17.82;78.91;94580.63;4993612;28;20217;-78
2022/07/08 00:22:05;;;;;;;5.43;2.88;;;;;;;17.75;78.80;94584.09;4993354;28;20225;-79
2022/07/08 00:24:32;;;;;;;3.75;2.42;;;;;;;17.64;79.71;94575.72;4993211;28;20610;-77
2022/07/08 00:26:59;;;;;;;3.70;2.83;;;;;;;17.47;80.86;94580.97;4993159;28;20210;-78
2022/07/08 00:29:27;;;;;;;3.90;3.05;;;;;;;17.37;80.78;94583.19;4992773;28;20210;-78
2022/07/08 00:31:54;;;;;;;4.65;3.30;;;;;;;17.45;80.17;94589.56;4992792;28;20256;-77
2022/07/08 00:34:21;;;;;;;3.85;2.60;;;;;;;17.58;80.20;94585.44;4992700;28;20282;-79
2022/07/08 00:36:47;;;;;;;3.97;2.92;;;;;;;17.35;80.80;94580.06;4992465;28;20217;-79
2022/07/08 00:39:14;;;;;;;5.78;2.95;;;;;;;17.35;81.05;94580.06;4992485;28;20627;-78
2022/07/08 00:41:41;;;;;;;3.58;2.67;;;;;;;17.43;80.70;94586.41;4992067;28;20656;-78
2022/07/08 00:44:08;;;;;;;3.85;2.95;;;;;;;17.50;79.94;94581.00;4992578;28;20205;-78
2022/07/08 00:46:36;;;;;;;2.90;2.60;;;;;;;17.54;79.81;94573.63;4992848;28;20198;-79
2022/07/08 00:49:03;;;;;;;7.43;2.42;;;;;;;17.64;79.78;94575.72;4992273;28;20732;-79
2022/07/08 00:51:30;;;;;;;3.50;2.50;;;;;;;17.70;79.39;94582.47;4992983;28;20201;-78
2022/07/08 00:53:58;;;;;;;3.63;2.53;;;;;;;17.72;79.29;94582.88;4993071;28;20205;-77
2022/07/08 00:56:27;;;;;;;3.85;2.58;;;;;;;17.68;78.98;94592.22;4992403;28;20268;-78
2022/07/08 00:58:53;;;;;;;3.85;2.65;;;;;;;17.72;78.75;94585.63;4992728;28;20205;-78
2022/07/08 01:01:21;;;;;;;4.28;2.83;;;;;;;17.80;78.33;94582.97;4992339;28;20229;-78
2022/07/08 01:03:50;;;;;;;5.15;2.63;;;;;;;17.86;78.45;94576.00;4992308;28;20202;-78
2022/07/08 01:06:17;;;;;;;4.78;2.88;;;;;;;17.94;78.37;94583.91;4978918;28;20276;-78
2022/07/08 01:08:44;;;;;;;4.78;3.13;;;;;;;17.99;78.15;94580.03;4992146;28;20204;-78
2022/07/08 01:11:13;;;;;;;5.70;3.70;;;;;;;18.08;78.01;94584.06;4991881;28;20208;-78
2022/07/08 01:13:40;;;;;;;5.57;3.15;;;;;;;18.19;77.93;94583.38;4992152;28;20699;-77
2022/07/08 01:16:08;;;;;;;5.65;3.17;;;;;;;18.17;77.78;94575.53;4991628;28;20209;-77
2022/07/08 01:18:35;;;;;;;3.42;2.40;;;;;;;18.09;78.24;94577.41;4991358;28;20296;-77
2022/07/08 01:21:04;;;;;;;4.78;3.25;;;;;;;17.87;79.24;94581.09;4991288;28;20666;-78
2022/07/08 01:23:31;;;;;;;6.22;2.92;;;;;;;17.82;79.63;94581.44;4991623;28;20206;-79
2022/07/08 01:25:59;;;;;;;5.97;2.97;;;;;;;17.62;81.17;94580.00;4991915;28;20252;-77
2022/07/08 01:28:27;;;;;;;5.15;3.70;;;;;;;17.77;81.45;94578.25;4992450;28;20202;-77
2022/07/08 01:30:54;;;;;;;8.98;3.80;;;;;;;17.63;82.32;94576.88;4992334;28;20205;-77
2022/07/08 01:33:20;;;;;;;9.38;3.63;;;;;;;17.57;82.58;94575.63;4991988;28;20229;-78
2022/07/08 01:35:47;;;;;;;5.68;3.53;;;;;;;17.46;82.95;94577.44;4992063;28;20210;-78
2022/07/08 01:38:15;;;;;;;8.05;3.55;;;;;;;17.47;82.87;94570.81;4991737;28;20209;-78
2022/07/08 01:40:42;;;;;;;3.90;3.17;;;;;;;17.44;82.45;94570.75;4991980;28;20205;-78
2022/07/08 01:43:09;;;;;;;4.80;3.45;;;;;;;17.46;82.64;94585.66;4991056;28;20229;-78
2022/07/08 01:45:36;;;;;;;6.65;3.92;;;;;;;17.32;82.39;94574.53;4992116;28;20198;-78
2022/07/08 01:48:03;;;;;;;5.10;3.58;;;;;;;17.22;82.99;94577.94;4992027;28;20205;-78
2022/07/08 01:50:30;;;;;;;4.80;3.40;;;;;;;17.18;83.45;94585.28;4991174;28;20275;-78
2022/07/08 01:52:57;;;;;;;5.75;3.53;;;;;;;17.15;83.42;94580.56;4991796;28;20624;-78
2022/07/08 01:55:26;;;;;;;4.10;3.22;;;;;;;17.16;83.24;94582.94;4991666;28;20657;-78
2022/07/08 01:57:53;;;;;;;4.00;3.28;;;;;;;17.12;83.44;94584.03;4991872;28;20201;-78
2022/07/08 02:00:20;;;;;;;4.07;2.97;;;;;;;17.09;83.63;94582.03;4991825;28;20209;-78
2022/07/08 02:02:48;;;;;;;5.13;3.30;;;;;;;17.17;83.15;94572.75;4991767;28;20225;-78
2022/07/08 02:05:16;;;;;;;4.97;3.50;;;;;;;17.10;82.95;94580.84;4991239;28;20305;-78
2022/07/08 02:07:43;;;;;;;11.60;3.35;;;;;;;17.00;83.02;94577.63;4991891;28;20213;-77
2022/07/08 02:10:10;;;;;;;3.22;2.58;;;;;;;16.98;83.14;94585.41;4990946;28;20318;-79
2022/07/08 02:12:38;;;;;;;10.38;3.22;;;;;;;16.89;83.71;94586.84;4991165;28;20701;-78
2022/07/08 02:15:08;;;;;;;4.07;3.03;;;;;;;16.74;84.04;94585.81;4991589;28;20313;-78
2022/07/08 02:17:37;;;;;;;5.10;3.45;;;;;;;16.72;84.69;94590.88;4991484;28;20231;-78
2022/07/08 02:20:05;;;;;;;5.70;3.30;;;;;;;16.63;85.05;94596.59;4991301;28;20264;-77
2022/07/08 02:22:33;;;;;;;4.25;2.90;;;;;;;16.53;85.98;94593.69;4991030;28;20235;-77
2022/07/08 02:25:00;;;;;;;4.38;3.08;;;;;;;16.46;86.54;94594.34;4991370;28;20735;-78
2022/07/08 02:27:27;;;;;;;5.88;3.22;;;;;;;16.37;86.93;94595.75;4991527;28;20209;-78
2022/07/08 02:29:56;;;;;;;6.30;3.70;;;;;;;16.34;86.93;94595.31;4991297;28;20612;-78
2022/07/08 02:32:23;;;;;;;4.55;2.92;;;;;;;16.30;87.30;94602.66;4991312;28;20279;-78
2022/07/08 02:34:50;;;;;;;6.95;3.45;;;;;;;16.22;87.41;94598.22;4991040;28;20240;-77
2022/07/08 02:37:18;;;;;;;6.28;2.75;;;;;;;16.32;87.10;94611.28;4991474;28;20209;-77
2022/07/08 02:39:45;;;;;;;11.70;3.83;;;;;;;16.40;86.67;94616.88;4990676;28;20267;-78
2022/07/08 02:42:12;;;;;;;9.55;3.47;;;;;;;16.40;85.90;94605.97;4991098;28;20636;-78
2022/07/08 02:44:38;;;;;;;4.60;2.90;;;;;;;16.52;85.60;94608.50;4990796;28;20237;-78
2022/07/08 02:47:07;;;;;;;5.75;3.28;;;;;;;16.54;85.13;94611.63;4990748;28;20291;-78
2022/07/08 02:49:34;;;;;;;6.22;3.42;;;;;;;16.65;85.04;94601.72;4991024;28;20296;-78
2022/07/08 02:52:01;;;;;;;6.38;3.35;;;;;;;16.50;85.16;94606.13;4990592;28;20255;-78
2022/07/08 02:54:28;;;;;;;5.53;3.33;;;;;;;16.38;85.24;94609.06;4991080;28;20210;-78
2022/07/08 02:56:54;;;;;;;5.90;3.70;;;;;;;16.44;85.01;94615.00;4991178;28;20665;-78
2022/07/08 02:59:21;;;;;;;4.45;3.08;;;;;;;16.50;85.20;94616.28;4990572;28;20240;-78
2022/07/08 03:01:48;;;;;;;4.70;3.28;;;;;;;16.54;84.94;94606.97;4990253;28;20221;-77
2022/07/08 03:04:16;;;;;;;5.70;3.50;;;;;;;16.65;84.89;94610.72;4991468;28;20767;-78
2022/07/08 03:06:43;;;;;;;5.22;3.30;;;;;;;16.81;84.27;94605.06;4994636;28;20280;-79
2022/07/08 03:09:10;;;;;;;4.07;2.85;;;;;;;16.96;84.06;94601.41;4994509;28;20260;-78
2022/07/08 03:11:37;;;;;;;4.35;2.90;;;;;;;17.27;83.33;94594.00;4994051;28;20609;-79
2022/07/08 03:14:04;;;;;;;4.65;3.08;;;;;;;17.71;82.11;94596.97;4994885;28;20221;-78
2022/07/08 03:16:30;;;;;;;4.28;3.17;;;;;;;18.23;79.65;94595.97;4997719;28;20204;-78
2022/07/08 03:18:57;;;;;;;4.90;2.92;;;;;;;18.71;76.89;94594.09;4996980;28;20209;-79
2022/07/08 03:21:25;;;;;;;4.15;3.30;;;;;;;19.00;75.61;94586.03;5004495;28;20194;-79
2022/07/08 03:23:52;;;;;;;4.93;3.22;;;;;;;19.09;74.58;94581.81;5004188;28;20226;-78
2022/07/08 03:26:19;;;;;;;5.38;3.63;;;;;;;18.97;74.88;94593.09;5001376;28;20202;-78
2022/07/08 03:28:45;;;;;;;5.00;2.80;;;;;;;19.16;74.60;94592.81;5001605;28;20194;-78
2022/07/08 03:31:13;;;;;;;5.53;3.15;;;;;;;19.60;73.48;94589.16;4996280;28;20201;-79
2022/07/08 03:33:40;;;;;;;3.83;3.00;;;;;;;20.52;70.55;94594.94;5001928;28;20225;-79
2022/07/08 03:36:07;;;;;;;5.63;3.50;;;;;;;20.77;68.99;94588.69;5004888;28;20205;-79
2022/07/08 03:38:36;;;;;;;4.20;3.80;;;;;;;21.37;67.54;94594.13;5006639;28;20309;-77
2022/07/08 03:41:20;;;;;;;5.07;4.57;;;;;;;21.90;65.28;94588.44;4998284;28;20272;-77
2022/07/08 03:43:47;;;;;;;4.90;4.07;;;;;;;22.07;64.34;94588.81;4997233;28;20205;-78
2022/07/08 03:46:14;;;;;;;4.70;3.90;;;;;;;22.47;62.57;94599.22;5000582;28;20726;-78
2022/07/08 03:48:40;;;;;;;5.13;4.03;;;;;;;23.16;60.53;94592.78;4993918;28;20697;-79
2022/07/08 03:51:07;;;;;;;5.30;3.80;;;;;;;23.50;58.84;94595.63;4993959;28;20206;-78
2022/07/08 03:53:35;;;;;;;4.80;3.85;;;;;;;24.55;56.57;94594.75;4993534;28;20209;-78
2022/07/08 03:56:02;;;;;;;4.10;3.67;;;;;;;24.98;54.67;94594.13;4996899;28;20743;-77
2022/07/08 03:58:29;;;;;;;5.20;4.07;;;;;;;25.57;53.06;94587.94;5002239;28;20504;-75
2022/07/08 04:00:56;;;;;;;4.05;3.65;;;;;;;26.37;51.41;94582.03;5004208;28;20620;-77
2022/07/08 04:03:23;;;;;;;5.65;3.72;;;;;;;27.29;48.89;94584.63;4996146;28;20234;-77
2022/07/08 04:05:50;;;;;;;4.47;4.03;;;;;;;26.87;49.32;94587.22;4993742;28;20198;-80
2022/07/08 04:08:16;;;;;;;4.97;3.92;;;;;;;27.59;47.88;94580.69;4993765;28;20270;-79
2022/07/08 04:10:44;;;;;;;5.28;4.13;;;;;;;27.75;47.90;94577.84;4993336;28;20205;-80
2022/07/08 04:13:11;;;;;;;5.22;4.63;;;;;;;28.09;46.02;94580.09;4993240;28;20230;-78
2022/07/08 04:15:38;;;;;;;10.65;4.60;;;;;;;27.56;47.62;94587.91;4991410;28;20238;-79
2022/07/08 04:18:05;;;;;;;4.13;3.53;;;;;;;28.02;46.55;94588.63;4992767;28;20216;-77
2022/07/08 04:20:31;;;;;;;5.07;4.25;;;;;;;28.49;44.96;94585.31;4993184;28;20268;-80
2022/07/08 04:22:58;;;;;;;4.88;3.88;;;;;;;28.83;43.07;94577.13;4993868;28;20708;-80
2022/07/08 04:25:25;;;;;;;4.75;4.10;;;;;;;28.78;43.75;94579.66;5002041;28;20687;-80
2022/07/08 04:27:53;;;;;;;6.05;3.97;;;;;;;28.82;43.76;94586.72;4993395;28;20205;-80
2022/07/08 04:30:20;;;;;;;4.22;3.83;;;;;;;29.01;43.10;94587.69;4991254;28;20209;-77
2022/07/08 04:32:47;;;;;;;4.97;4.30;;;;;;;29.68;42.20;94585.47;4992218;28;20256;-79
2022/07/08 04:35:13;;;;;;;4.88;4.38;;;;;;;29.67;42.27;94583.88;4993202;28;20248;-83
2022/07/08 04:37:40;;;;;;;5.55;4.75;;;;;;;29.50;42.25;94590.91;4993184;28;20206;-77
2022/07/08 04:40:09;;;;;;;5.75;5.00;;;;;;;28.59;44.27;94589.78;4992712;28;20201;-81
2022/07/08 04:42:36;;;;;;;6.70;4.68;;;;;;;28.64;44.41;94586.44;4992588;28;20775;-80
2022/07/08 04:45:05;;;;;;;6.60;4.93;;;;;;;29.96;41.34;94580.09;4992214;28;20681;-81
2022/07/08 04:47:32;;;;;;;6.50;5.53;;;;;;;28.45;44.14;94584.63;4992888;28;20273;-81
2022/07/08 04:49:59;;;;;;;5.65;5.03;;;;;;;28.30;45.19;94590.63;4992412;28;20256;-81
2022/07/08 04:52:25;;;;;;;7.75;4.88;;;;;;;28.74;44.18;94585.34;4992483;28;20696;-80
2022/07/08 04:54:52;;;;;;;8.57;5.43;;;;;;;29.13;42.97;94583.31;4991106;28;20206;-84
2022/07/08 04:57:19;;;;;;;8.15;5.28;;;;;;;29.23;43.17;94587.81;4992729;28;20214;-80
2022/07/08 04:59:46;;;;;;;5.32;4.82;;;;;;;29.85;41.51;94593.66;4992712;28;20201;-78
2022/07/08 05:02:14;;;;;;;5.85;4.93;;;;;;;29.52;42.21;94588.41;4992620;28;20214;-81
2022/07/08 05:04:41;;;;;;;6.05;5.20;;;;;;;30.86;40.08;94581.16;4993006;28;20209;-82
2022/07/08 05:07:08;;;;;;;6.70;5.13;;;;;;;31.24;38.34;94584.41;4992280;28;20680;-79
2022/07/08 05:09:34;;;;;;;6.13;5.53;;;;;;;31.17;38.74;94578.31;4992052;28;20257;-80
2022/07/08 05:12:02;;;;;;;6.00;5.40;;;;;;;32.36;37.41;94585.63;4992621;28;20267;-81
2022/07/08 05:14:28;;;;;;;6.38;4.88;;;;;;;32.72;36.23;94576.34;4991705;28;20253;-80
2022/07/08 05:16:55;;;;;;;5.95;5.22;;;;;;;33.16;35.69;94571.03;4992036;28;20600;-78
2022/07/08 05:19:23;;;;;;;6.30;5.45;;;;;;;33.11;35.61;94573.69;4991881;28;20264;-85
2022/07/08 05:21:50;;;;;;;5.47;4.97;;;;;;;32.65;36.00;94587.13;4992153;28;20284;-77
2022/07/08 05:24:17;;;;;;;7.32;5.65;;;;;;;30.87;38.39;94589.09;4991927;28;20245;-79
2022/07/08 05:26:44;;;;;;;5.95;5.13;;;;;;;31.43;38.43;94585.25;4991379;28;20285;-76
2022/07/08 05:29:11;;;;;;;7.85;5.32;;;;;;;33.03;35.52;94584.50;4991636;28;20201;-78
2022/07/08 05:31:38;;;;;;;4.85;4.35;;;;;;;34.26;33.98;94575.13;4991571;28;20256;-75
2022/07/08 05:34:05;;;;;;;6.18;4.97;;;;;;;33.80;34.39;94583.94;4991577;28;20606;-76
2022/07/08 05:36:33;;;;;;;6.35;4.97;;;;;;;31.64;37.66;94589.97;4991741;28;20248;-77
2022/07/08 05:39:01;;;;;;;7.22;4.70;;;;;;;32.25;37.37;94593.75;4991395;28;20212;-79
2022/07/08 05:41:28;;;;;;;5.45;4.85;;;;;;;32.45;36.77;94594.00;4991685;28;20209;-77
2022/07/08 05:43:55;;;;;;;5.55;4.93;;;;;;;33.19;35.52;94570.06;4991580;28;20292;-76
2022/07/08 05:46:21;;;;;;;5.68;5.18;;;;;;;33.30;35.06;94569.56;4990480;28;20241;-75
2022/07/08 05:48:48;;;;;;;6.82;5.70;;;;;;;33.63;35.05;94569.50;4991353;28;20202;-76
2022/07/08 05:51:15;;;;;;;6.97;5.68;;;;;;;31.60;37.56;94572.50;4991882;28;20601;-80
2022/07/08 05:53:43;;;;;;;6.68;4.88;;;;;;;32.38;36.98;94579.53;4991994;28;20620;-83
2022/07/08 05:56:10;;;;;;;7.22;5.55;;;;;;;30.74;39.17;94585.63;4991366;28;20257;-83
2022/07/08 05:58:37;;;;;;;6.90;5.38;;;;;;;31.11;38.98;94574.59;4991571;28;20279;-79
2022/07/08 06:01:04;;;;;;;7.47;5.63;;;;;;;29.20;41.93;94588.69;4991616;28;20284;-81
2022/07/08 06:03:30;;;;;;;10.32;5.70;;;;;;;30.25;40.31;94586.22;4991409;28;20229;-81
2022/07/08 06:05:57;;;;;;;7.45;5.85;;;;;;;30.89;39.71;94578.19;4990777;28;20786;-83
2022/07/08 06:08:24;;;;;;;8.27;5.22;;;;;;;29.99;41.13;94588.38;4990426;28;20268;-82
2022/07/08 06:10:52;;;;;;;10.52;6.00;;;;;;;30.65;40.06;94583.53;4990535;28;20205;-81
2022/07/08 06:13:19;;;;;;;7.28;5.93;;;;;;;30.25;40.70;94575.06;4990406;28;20234;-82
2022/07/08 06:15:46;;;;;;;6.82;6.05;;;;;;;29.96;41.95;94588.47;4989940;28;20735;-83
2022/07/08 06:18:13;;;;;;;9.57;5.70;;;;;;;29.80;41.80;94580.28;4990841;28;20201;-83
2022/07/08 06:20:39;;;;;;;8.95;6.10;;;;;;;30.02;41.38;94573.50;4990974;28;20213;-82
2022/07/08 06:23:06;;;;;;;9.18;5.50;;;;;;;30.09;42.12;94578.03;4991586;28;20225;-83
2022/07/08 06:25:33;;;;;;;5.72;5.13;;;;;;;30.38;42.08;94575.75;4991511;28;20290;-83
2022/07/08 06:28:02;;;;;;;8.02;5.90;;;;;;;29.95;42.36;94575.75;4991409;28;20205;-81
2022/07/08 06:30:29;;;;;;;6.20;5.32;;;;;;;30.27;40.89;94575.38;4991159;28;20201;-81
2022/07/08 06:32:55;;;;;;;8.50;5.22;;;;;;;31.43;39.42;94562.84;4991158;28;20630;-82
2022/07/08 06:35:22;;;;;;;9.02;5.65;;;;;;;31.39;38.94;94559.41;4991045;28;20241;-81
2022/07/08 06:37:49;;;;;;;8.15;6.13;;;;;;;31.33;38.90;94552.84;4991759;28;20202;-82
2022/07/08 06:40:16;;;;;;;8.55;6.13;;;;;;;31.81;38.17;94564.47;4994150;28;20256;-84
2022/07/08 06:42:43;;;;;;;8.00;5.80;;;;;;;32.42;36.87;94555.69;4995356;28;20266;-84
2022/07/08 06:45:11;;;;;;;6.18;5.32;;;;;;;31.76;39.06;94555.41;4994923;28;20198;-83
2022/07/08 06:47:38;;;;;;;7.20;5.20;;;;;;;32.64;37.83;94551.88;4994553;28;20805;-83
2022/07/08 06:50:06;;;;;;;7.00;5.25;;;;;;;32.15;37.80;94555.69;4994835;28;20707;-81
2022/07/08 06:52:33;;;;;;;6.63;4.93;;;;;;;33.33;36.52;94539.75;4994727;28;20206;-81
2022/07/08 06:55:00;;;;;;;7.60;4.82;;;;;;;32.72;37.07;94541.91;4994979;28;20214;-82
2022/07/08 06:57:27;;;;;;;7.60;5.55;;;;;;;31.75;37.37;94539.84;4994878;28;20210;-82
2022/07/08 06:59:54;;;;;;;6.55;4.72;;;;;;;32.22;37.78;94538.59;4995106;28;20661;-81
2022/07/08 07:02:22;;;;;;;7.03;5.57;;;;;;;32.39;36.39;94531.38;4995256;28;20201;-82
2022/07/08 07:04:49;;;;;;;5.95;4.75;;;;;;;32.70;35.63;94527.53;4994553;28;20241;-83
2022/07/08 07:07:16;;;;;;;5.82;4.78;;;;;;;33.57;34.01;94526.47;4994315;28;20264;-82
2022/07/08 07:09:43;;;;;;;3.80;3.38;;;;;;;34.00;33.79;94521.47;4994473;28;20705;-83
2022/07/08 07:12:10;;;;;;;5.65;4.00;;;;;;;34.05;35.18;94520.78;4994469;28;20256;-82
2022/07/08 07:14:37;;;;;;;5.45;4.63;;;;;;;31.34;37.99;94520.81;4994954;28;20284;-83
2022/07/08 07:17:04;;;;;;;4.10;3.70;;;;;;;31.47;37.60;94518.66;4994579;28;20248;-82
2022/07/08 07:19:32;;;;;;;3.88;3.47;;;;;;;31.37;37.96;94525.50;4993842;28;20795;-81
2022/07/08 07:21:59;;;;;;;3.83;2.95;;;;;;;31.24;37.24;94517.22;4994066;28;20205;-82
2022/07/08 07:24:26;;;;;;;3.97;3.58;;;;;;;31.31;37.03;94521.72;4993974;28;20237;-83
2022/07/08 07:26:53;;;;;;;4.85;4.10;;;;;;;31.80;37.63;94518.84;4994821;28;20206;-82
2022/07/08 07:29:20;;;;;;;4.07;3.67;;;;;;;31.39;36.93;94525.81;4994372;28;20252;-82
2022/07/08 07:31:46;;;;;;;5.57;3.58;;;;;;;32.38;37.21;94510.22;4993957;28;20202;-82
2022/07/08 07:34:13;;;;;;;3.70;3.30;;;;;;;33.20;35.23;94514.69;4994010;28;20775;-82
2022/07/08 07:36:41;;;;;;;3.88;3.10;;;;;;;31.23;37.92;94531.69;4994197;28;20198;-81
2022/07/08 07:39:09;;;;;;;6.03;3.90;;;;;;;30.57;39.01;94533.94;4994748;28;20213;-81
2022/07/08 07:41:36;;;;;;;4.07;3.08;;;;;;;30.93;37.65;94534.06;4994040;28;20237;-82
2022/07/08 07:44:03;;;;;;;3.35;3.00;;;;;;;30.15;40.35;94528.72;4994005;28;20233;-80
2022/07/08 07:46:30;;;;;;;4.15;3.47;;;;;;;29.11;40.83;94525.19;4994002;28;20731;-83
2022/07/08 07:48:56;;;;;;;5.68;3.28;;;;;;;29.17;41.52;94533.78;4993624;28;20240;-80
2022/07/08 07:51:23;;;;;;;3.95;3.00;;;;;;;29.39;42.49;94545.78;4994141;28;20202;-81
2022/07/08 07:53:52;;;;;;;5.43;3.63;;;;;;;29.79;41.19;94528.47;4994071;28;20248;-83
2022/07/08 07:56:19;;;;;;;4.00;3.40;;;;;;;30.03;40.31;94532.38;4993459;28;20276;-82
2022/07/08 07:58:46;;;;;;;3.33;3.03;;;;;;;29.31;39.36;94528.50;4994130;28;20553;-83
2022/07/08 08:01:13;;;;;;;4.28;2.72;;;;;;;28.46;41.85;94536.03;4994440;28;20252;-82
2022/07/08 08:03:39;;;;;;;3.95;3.08;;;;;;;28.34;41.65;94534.00;4993804;28;20237;-81
2022/07/08 08:06:07;;;;;;;3.85;2.90;;;;;;;29.11;41.12;94536.34;4993385;28;20212;-83
2022/07/08 08:08:35;;;;;;;4.53;3.20;;;;;;;29.23;40.64;94531.97;4994269;28;20237;-82
2022/07/08 08:11:04;;;;;;;3.53;2.65;;;;;;;28.82;41.18;94536.53;4994491;28;20201;-83
2022/07/08 08:13:31;;;;;;;3.08;2.78;;;;;;;29.46;41.06;94534.38;4994238;28;20278;-83
2022/07/08 08:15:58;;;;;;;4.30;2.47;;;;;;;30.68;38.10;94525.91;4995563;28;20225;-82
2022/07/08 08:18:25;;;;;;;2.80;2.50;;;;;;;29.06;39.67;94533.34;4995308;28;20675;-82
2022/07/08 08:20:52;;;;;;;3.50;2.47;;;;;;;29.50;40.28;94535.06;4995207;28;20205;-83
2022/07/08 08:23:19;;;;;;;3.85;2.88;;;;;;;28.84;39.74;94536.81;4993872;28;20276;-81
2022/07/08 08:25:46;;;;;;;5.15;2.85;;;;;;;28.75;40.87;94530.34;4981593;28;20214;-79
2022/07/08 08:28:14;;;;;;;3.70;3.25;;;;;;;28.92;39.62;94527.03;4993885;28;20197;-82
2022/07/08 08:30:41;;;;;;;3.17;2.70;;;;;;;29.22;39.96;94522.84;4993323;28;20205;-81
2022/07/08 08:33:07;;;;;;;2.38;2.10;;;;;;;28.83;40.55;94529.72;4993324;28;20241;-80
2022/07/08 08:35:34;;;;;;;4.00;2.88;;;;;;;29.47;38.82;94519.19;4992103;28;20202;-80
2022/07/08 08:38:01;;;;;;;2.90;2.58;;;;;;;30.21;38.08;94512.13;4992904;28;20635;-84
2022/07/08 08:40:29;;;;;;;5.32;3.22;;;;;;;28.79;40.07;94526.25;4992603;28;20256;-81
2022/07/08 08:42:56;;;;;;;2.40;2.20;;;;;;;28.06;42.58;94524.47;4992690;28;20749;-80
2022/07/08 08:45:25;;;;;;;2.60;2.35;;;;;;;28.05;41.01;94518.13;4992938;28;20252;-81
2022/07/08 08:47:53;;;;;;;4.72;2.70;;;;;;;27.83;42.31;94519.97;4992892;28;20236;-82
2022/07/08 08:53:11;;;;;;;2.85;2.53;;;;;;;28.11;43.31;94508.00;4993387;28;20197;-80
2022/07/08 08:55:39;;;;;;;2.53;2.33;;;;;;;27.63;43.73;94513.78;4993833;28;20276;-80
2022/07/08 08:58:07;;;;;;;3.53;3.13;;;;;;;27.13;42.92;94509.53;4979965;28;20292;-82
2022/07/08 09:00:36;;;;;;;3.17;2.88;;;;;;;27.45;44.94;94514.25;4993184;28;20214;-82
2022/07/08 09:03:03;;;;;;;6.65;2.75;;;;;;;26.36;45.10;94513.00;4995001;28;20688;-83
2022/07/08 09:05:32;;;;;;;3.17;2.70;;;;;;;27.13;43.91;94503.97;4992853;28;20233;-78
2022/07/08 09:07:59;;;;;;;5.25;2.65;;;;;;;28.64;41.70;94486.88;4992930;28;20212;-81
2022/07/08 09:10:26;;;;;;;3.35;2.60;;;;;;;28.69;40.36;94496.69;4992743;28;20214;-82
2022/07/08 09:13:04;;;;;;;3.78;2.20;;;;;;;28.58;41.92;94479.50;4992471;28;20233;-82
2022/07/08 09:15:37;;;;;;;2.22;2.03;;;;;;;28.99;38.76;94479.34;4992037;28;20212;-77
2022/07/08 09:18:06;;;;;;;3.20;2.65;;;;;;;28.96;39.71;94485.06;4995574;28;20189;-82
2022/07/08 09:20:41;;;;;;;3.42;2.42;;;;;;;28.82;40.34;94480.75;4993981;28;20256;-79
2022/07/08 09:23:13;;;;;;;4.10;2.78;;;;;;;27.88;42.55;94484.00;4992520;28;20267;-81
2022/07/08 09:25:40;;;;;;;3.28;2.97;;;;;;;27.50;43.91;94472.75;4992461;28;20309;-80
2022/07/08 09:28:10;;;;;;;3.95;3.00;;;;;;;27.34;43.70;94470.00;4992033;28;20275;-78
2022/07/08 09:30:41;;;;;;;3.25;2.95;;;;;;;27.11;44.86;94489.72;4992520;28;20206;-80
2022/07/08 09:33:12;;;;;;;3.97;2.80;;;;;;;27.22;43.28;94484.66;4991675;28;20234;-82
2022/07/08 09:35:42;;;;;;;4.55;2.92;;;;;;;27.24;45.24;94485.00;4991135;28;20282;-79
2022/07/08 09:38:10;;;;;;;2.30;2.10;;;;;;;27.05;43.26;94469.22;4991433;28;20735;-81
2022/07/08 09:40:38;;;;;;;4.43;2.40;;;;;;;27.75;42.87;94452.56;4991257;28;20213;-80
2022/07/08 09:43:14;;;;;;;2.50;2.30;;;;;;;28.56;40.26;94454.09;4991026;28;20649;-81
2022/07/08 09:45:43;;;;;;;4.57;2.15;;;;;;;28.67;39.30;94440.59;4991522;28;20217;-78
2022/07/08 09:48:10;;;;;;;2.58;2.35;;;;;;;29.05;39.45;94453.69;4990745;28;20210;-79
2022/07/08 09:50:41;;;;;;;2.72;2.30;;;;;;;29.04;38.77;94446.53;4990797;28;20201;-80
2022/07/08 09:53:20;;;;;;;2.10;1.90;;;;;;;28.47;40.32;94451.19;4990870;28;20537;-80
2022/07/08 09:55:51;;;;;;;3.05;2.42;;;;;;;28.03;40.53;94456.50;4991150;28;20209;-81
2022/07/08 09:58:20;;;;;;;3.08;2.42;;;;;;;28.02;41.62;94452.16;4991307;28;20201;-79
2022/07/08 10:00:49;;;;;;;3.67;2.60;;;;;;;27.47;41.46;94453.38;4990979;28;20232;-79
2022/07/08 10:03:16;;;;;;;2.33;2.13;;;;;;;27.53;41.76;94454.38;4991249;28;20202;-82
2022/07/08 10:05:44;;;;;;;2.42;2.22;;;;;;;27.59;41.48;94445.09;4990831;28;20641;-80
2022/07/08 10:08:11;;;;;;;2.80;2.50;;;;;;;27.79;40.49;94438.53;4990959;28;20247;-79
2022/07/08 10:10:41;;;;;;;3.22;2.13;;;;;;;28.74;39.62;94418.03;4990607;28;20267;-79
2022/07/08 10:13:08;;;;;;;2.90;2.33;;;;;;;28.24;39.97;94424.47;4990231;28;20247;-80
2022/07/08 10:15:37;;;;;;;2.20;2.00;;;;;;;28.07;39.32;94420.19;4990467;28;20246;-80
2022/07/08 10:18:09;;;;;;;3.33;2.25;;;;;;;27.79;39.38;94413.50;4991077;28;20292;-78
2022/07/08 10:20:39;;;;;;;2.42;2.20;;;;;;;27.21;39.84;94417.09;4991212;28;20571;-80
2022/07/08 10:23:09;;;;;;;4.32;2.58;;;;;;;27.70;39.97;94413.38;4990606;28;20201;-80
2022/07/08 10:25:36;;;;;;;3.30;2.40;;;;;;;27.80;39.83;94413.03;4990747;28;20226;-80
2022/07/08 10:28:11;;;;;;;2.40;2.20;;;;;;;28.15;38.13;94400.03;4990993;28;20202;-82
2022/07/08 10:30:46;;;;;;;2.63;2.42;;;;;;;28.90;37.87;94386.44;4977234;28;20247;-80
2022/07/08 10:33:18;;;;;;;4.43;2.20;;;;;;;29.24;36.32;94388.44;4945213;28;1316803;-77
2022/07/08 10:36:02;;;;;;;3.13;2.55;;;;;;;28.57;37.84;94397.09;4991600;28;20277;-79
2022/07/08 10:38:30;;;;;;;3.13;2.67;;;;;;;27.28;40.03;94404.22;4991369;28;20285;-83
2022/07/08 10:41:02;;;;;;;3.08;2.58;;;;;;;27.40;40.17;94395.13;4991539;28;20204;-81
2022/07/08 10:43:30;;;;;;;2.90;2.25;;;;;;;28.23;39.29;94401.38;4991504;28;20212;-81
2022/07/08 10:46:06;;;;;;;3.22;2.63;;;;;;;29.16;38.74;94401.06;4990798;28;20279;-77
2022/07/08 10:48:48;;;;;;;2.88;2.20;;;;;;;29.59;37.25;94398.31;4991310;28;20217;-81
2022/07/08 10:51:58;;;;;;;2.38;2.10;;;;;;;28.81;37.20;94415.03;4991146;28;20812;-77
2022/07/08 10:54:37;;;;;;;2.92;2.63;;;;;;;28.32;38.52;94413.84;4990768;28;20232;-79
2022/07/08 10:57:10;;;;;;;2.63;2.42;;;;;;;28.06;38.83;94401.91;4991126;28;20809;-80
2022/07/08 10:59:38;;;;;;;2.38;2.15;;;;;;;27.95;39.64;94407.81;4991736;28;20210;-81
2022/07/08 11:02:06;;;;;;;2.38;2.17;;;;;;;27.65;38.74;94406.34;4991196;28;20210;-81
2022/07/08 11:04:46;;;;;;;2.15;1.92;;;;;;;27.42;40.05;94399.03;4991987;28;20234;-81
2022/07/08 11:07:25;;;;;;;2.28;1.90;;;;;;;27.13;38.51;94396.28;4991104;28;20198;-80
2022/07/08 11:09:54;;;;;;;2.10;1.90;;;;;;;27.44;38.75;94382.69;4991478;28;20198;-80
2022/07/08 11:12:24;;;;;;;2.28;2.08;;;;;;;27.98;39.14;94372.75;4990815;28;20290;-81
2022/07/08 11:14:53;;;;;;;4.65;2.80;;;;;;;28.05;38.08;94370.50;4991182;28;20707;-82
2022/07/08 11:17:21;;;;;;;2.30;2.10;;;;;;;28.22;39.52;94373.97;4990829;28;20700;-81
2022/07/08 11:19:51;;;;;;;2.47;1.90;;;;;;;27.55;41.74;94374.00;4991500;28;20205;-81
2022/07/08 11:22:19;;;;;;;2.08;1.90;;;;;;;26.64;39.87;94378.94;4991149;28;20252;-83
2022/07/08 11:24:47;;;;;;;2.25;1.90;;;;;;;27.21;41.40;94366.25;4991096;28;20226;-81
2022/07/08 11:27:14;;;;;;;3.50;2.20;;;;;;;27.53;39.89;94368.88;4994850;28;20205;-80
2022/07/08 11:29:48;;;;;;;3.85;2.42;;;;;;;27.69;41.83;94351.34;4994440;28;20293;-80
2022/07/08 11:32:15;;;;;;;2.22;2.03;;;;;;;28.04;40.23;94360.56;4994357;28;20205;-78
2022/07/08 11:34:42;;;;;;;2.15;1.90;;;;;;;27.80;40.52;94351.78;4994501;28;20194;-81
2022/07/08 11:37:10;;;;;;;2.42;2.00;;;;;;;27.83;40.54;94362.03;4994301;28;20201;-81
2022/07/08 11:39:37;;;;;;;3.28;1.90;;;;;;;27.53;40.77;94357.75;4994312;28;20652;-80